Time;durP1;ratioP1;P1;durP2;ratioP2;P2;SDS_P1;SDS_P2;PMS_P1;PMS_P2;Temp;Humidity;BMP_temperature;BMP_pressure;BME280_temperature;BME280_humidity;BME280_pressure;Samples;Min_cycle;Max_cycle;Signal;HPM_P1;HPM_P2
2020/12/15 06:01:20;;;;;;;42.78;22.17;;;;;;;0.85;83.82;100451.86;1752841;78;950029;-53
2020/12/15 06:03:57;;;;;;;40.92;18.95;;;;;;;0.85;83.92;100456.55;1733130;81;21597;-55
2020/12/15 06:06:25;;;;;;;40.03;21.27;;;;;;;0.90;83.90;100457.16;1696694;84;21597;-54
2020/12/15 06:08:54;;;;;;;45.92;22.05;;;;;;;0.95;83.75;100451.78;1690845;84;21655;-55
2020/12/15 06:11:22;;;;;;;42.73;19.82;;;;;;;0.94;83.60;100452.70;1712229;83;21586;-56
2020/12/15 06:13:53;;;;;;;40.28;18.50;;;;;;;0.94;83.62;100456.10;1696030;83;21559;-55
2020/12/15 06:16:26;;;;;;;40.58;19.10;;;;;;;1.04;83.67;100459.84;1673213;84;21567;-55
2020/12/15 06:18:54;;;;;;;43.60;22.45;;;;;;;1.10;83.62;100463.02;1724062;83;21147;-56
2020/12/15 06:21:23;;;;;;;53.70;26.45;;;;;;;1.16;83.34;100460.13;1716133;83;21605;-56
2020/12/15 06:24:00;;;;;;;58.23;26.00;;;;;;;1.22;83.12;100464.50;1706314;83;21661;-55
2020/12/15 06:26:29;;;;;;;61.75;29.23;;;;;;;1.26;82.85;100467.77;1709925;83;21190;-56
2020/12/15 06:29:03;;;;;;;56.73;29.40;;;;;;;1.23;82.66;100470.48;1694261;83;21666;-55
2020/12/15 06:31:50;;;;;;;69.77;37.60;;;;;;;1.29;82.66;100473.57;1823354;77;22244;-57
2020/12/15 06:34:28;;;;;;;60.33;32.13;;;;;;;1.26;82.53;100476.31;1804087;78;21630;-58
2020/12/15 06:36:58;;;;;;;56.30;28.55;;;;;;;1.31;82.29;100472.23;1776436;78;21197;-55
2020/12/15 06:39:28;;;;;;;54.25;28.60;;;;;;;1.31;82.29;100472.23;1809317;78;21170;-54
2020/12/15 06:42:03;;;;;;;53.92;27.37;;;;;;;1.26;82.24;100472.45;1740680;81;21200;-56
2020/12/15 06:44:34;;;;;;;77.17;36.90;;;;;;;1.23;82.32;100469.20;1754308;81;21111;-55
2020/12/15 06:47:04;;;;;;;67.15;31.45;;;;;;;1.25;82.56;100478.52;1728504;82;21174;-55
2020/12/15 06:49:35;;;;;;;63.95;31.37;;;;;;;1.29;82.46;100477.89;1742658;82;21617;-55
2020/12/15 06:52:06;;;;;;;57.43;26.77;;;;;;;1.28;82.45;100486.07;1742021;82;21341;-55
2020/12/15 06:54:36;;;;;;;57.23;26.30;;;;;;;1.36;82.47;100488.23;1758779;81;21649;-56
2020/12/15 06:57:09;;;;;;;53.00;24.67;;;;;;;1.39;82.27;100489.38;1726373;83;21557;-54
2020/12/15 06:59:40;;;;;;;57.35;27.98;;;;;;;1.41;82.19;100495.27;1727493;82;21590;-56
2020/12/15 07:02:13;;;;;;;55.38;28.85;;;;;;;1.47;82.24;100489.80;1717154;82;21609;-55
2020/12/15 07:04:48;;;;;;;48.45;24.20;;;;;;;1.48;82.06;100490.63;1722357;82;21218;-55
2020/12/15 07:07:16;;;;;;;51.53;25.85;;;;;;;1.49;82.01;100492.30;1727759;83;21158;-55
2020/12/15 07:09:46;;;;;;;50.35;23.60;;;;;;;1.47;81.95;100488.98;1715040;81;21188;-55
2020/12/15 07:12:16;;;;;;;41.33;20.48;;;;;;;1.46;81.97;100493.30;1703707;83;21270;-56
2020/12/15 07:14:50;;;;;;;44.88;20.72;;;;;;;1.48;81.99;100490.17;1706360;84;21562;-54
2020/12/15 07:17:19;;;;;;;;;;;;;;;1.53;82.03;100494.63;1686642;83;21182;-56
2020/12/15 07:19:47;;;;;;;42.93;19.67;;;;;;;1.51;81.93;100492.61;1721747;83;20459;-55
2020/12/15 07:22:16;;;;;;;47.27;22.82;;;;;;;1.53;82.00;100496.38;1691095;81;21625;-56
2020/12/15 07:24:45;;;;;;;46.95;22.90;;;;;;;1.56;81.84;100493.66;1700711;83;21612;-57
2020/12/15 07:27:14;;;;;;;41.10;20.85;;;;;;;1.60;81.77;100503.70;1692281;84;21579;-56
2020/12/15 07:29:53;;;;;;;59.60;30.85;;;;;;;1.62;81.80;100506.22;1703336;83;21164;-56
2020/12/15 07:32:21;;;;;;;55.63;28.47;;;;;;;1.63;81.58;100505.76;1731618;82;21171;-56
2020/12/15 07:34:52;;;;;;;46.75;22.93;;;;;;;1.59;81.58;100508.48;1734245;82;21630;-57
2020/12/15 07:37:20;;;;;;;50.00;23.12;;;;;;;1.60;81.66;100515.75;1695167;82;21593;-56
2020/12/15 07:39:48;;;;;;;45.15;23.12;;;;;;;1.65;81.65;100518.09;1735509;82;21599;-56
2020/12/15 07:42:17;;;;;;;37.55;20.05;;;;;;;1.70;81.49;100517.39;1735443;80;21611;-58
2020/12/15 07:44:45;;;;;;;38.10;21.75;;;;;;;1.74;81.40;100519.73;1733041;82;21553;-56
2020/12/15 07:47:14;;;;;;;34.35;17.60;;;;;;;1.74;81.40;100519.73;1731231;82;21713;-56
2020/12/15 07:49:43;;;;;;;40.83;19.48;;;;;;;1.75;81.20;100515.41;1730470;82;21681;-55
2020/12/15 07:52:12;;;;;;;39.92;20.65;;;;;;;1.75;81.19;100519.27;1718512;82;21550;-56
2020/12/15 07:54:43;;;;;;;39.90;19.82;;;;;;;1.76;81.09;100525.63;1733926;80;21561;-56
2020/12/15 07:57:13;;;;;;;38.53;19.77;;;;;;;1.77;81.04;100523.88;1741268;80;21165;-57
2020/12/15 07:59:43;;;;;;;45.45;23.98;;;;;;;1.76;81.00;100525.63;1733840;82;21183;-57
2020/12/15 08:02:18;;;;;;;38.65;19.23;;;;;;;1.77;80.92;100524.70;1733996;82;21169;-57
2020/12/15 08:04:48;;;;;;;39.27;20.25;;;;;;;1.79;81.01;100522.88;1731678;82;21781;-58
2020/12/15 08:07:18;;;;;;;48.15;24.70;;;;;;;1.83;80.89;100522.27;1710637;81;21624;-58
2020/12/15 08:09:48;;;;;;;45.60;24.40;;;;;;;1.86;80.91;100516.94;1723985;82;22087;-57
2020/12/15 08:12:16;;;;;;;46.65;25.37;;;;;;;1.91;80.84;100516.70;1741517;82;21313;-57
2020/12/15 08:14:47;;;;;;;50.08;24.80;;;;;;;1.99;80.74;100519.68;1744717;82;21317;-56
2020/12/15 08:17:15;;;;;;;47.33;25.70;;;;;;;2.01;80.55;100524.31;1740402;82;21139;-57
2020/12/15 08:19:44;;;;;;;41.70;23.42;;;;;;;2.04;80.42;100516.40;1718076;83;21638;-55
2020/12/15 08:22:21;;;;;;;41.77;23.50;;;;;;;2.10;80.32;100527.20;1717161;83;21235;-56
2020/12/15 08:24:51;;;;;;;41.00;22.98;;;;;;;2.12;80.09;100526.69;1718033;82;21139;-57
2020/12/15 08:27:34;;;;;;;43.28;24.98;;;;;;;2.14;80.07;100526.14;1732642;82;21156;-57
2020/12/15 08:30:20;;;;;;;39.75;22.73;;;;;;;2.20;79.88;100525.44;1743012;80;21146;-57
2020/12/15 08:32:50;;;;;;;42.73;22.65;;;;;;;2.21;79.75;100527.92;1743536;82;21173;-56
2020/12/15 08:35:25;;;;;;;37.63;20.37;;;;;;;2.18;79.63;100533.26;1748296;80;21312;-57
2020/12/15 08:38:07;;;;;;;34.73;18.92;;;;;;;2.16;79.57;100540.22;1743651;81;21151;-56
2020/12/15 08:40:38;;;;;;;;;;;;;;;2.16;79.59;100542.34;1756231;80;21161;-57
2020/12/15 08:43:08;;;;;;;37.30;20.32;;;;;;;2.20;79.70;100540.91;1711369;82;20201;-57
2020/12/15 08:45:40;;;;;;;40.30;21.95;;;;;;;2.16;79.76;100535.89;1687408;83;21169;-57
2020/12/15 08:48:17;;;;;;;43.23;23.77;;;;;;;2.20;79.57;100538.33;1680366;84;21668;-56
2020/12/15 08:50:46;;;;;;;43.28;23.75;;;;;;;2.16;79.33;100540.22;1699742;82;21198;-56
2020/12/15 08:53:17;;;;;;;38.90;19.87;;;;;;;2.16;79.52;100537.64;1725103;83;21711;-56
2020/12/15 08:55:46;;;;;;;39.15;20.57;;;;;;;2.19;79.48;100537.50;1724766;82;21140;-56
2020/12/15 08:58:18;;;;;;;38.55;21.57;;;;;;;2.19;79.44;100536.20;1719673;83;21249;-56
2020/12/15 09:00:50;;;;;;;42.20;24.40;;;;;;;2.18;79.45;100537.12;1722683;83;21130;-56
2020/12/15 09:03:21;;;;;;;43.63;25.70;;;;;;;2.16;79.35;100528.16;1722197;83;21122;-55
2020/12/15 09:05:56;;;;;;;38.85;21.93;;;;;;;2.15;79.33;100534.23;1692880;84;21567;-57
2020/12/15 09:08:27;;;;;;;40.78;22.40;;;;;;;2.21;79.51;100530.50;1693556;84;21602;-55
2020/12/15 09:11:01;;;;;;;37.38;20.80;;;;;;;2.25;79.42;100533.75;1698067;84;21212;-55
2020/12/15 09:13:30;;;;;;;36.42;19.98;;;;;;;2.30;79.33;100526.56;1693033;84;21194;-55
2020/12/15 09:16:00;;;;;;;34.38;17.90;;;;;;;2.39;79.13;100528.66;1698267;84;21190;-56
2020/12/15 09:18:37;;;;;;;29.80;15.88;;;;;;;2.45;78.96;100530.89;1690386;84;21166;-56
2020/12/15 09:21:17;;;;;;;39.13;19.27;;;;;;;2.54;78.49;100532.11;1678350;85;21686;-56
2020/12/15 09:23:50;;;;;;;33.53;17.15;;;;;;;2.51;78.21;100534.88;1718006;83;21146;-55
2020/12/15 09:26:18;;;;;;;36.13;19.20;;;;;;;2.51;78.28;100541.33;1695531;83;21179;-59
2020/12/15 09:28:48;;;;;;;34.35;18.05;;;;;;;2.52;78.21;100535.25;1696008;83;21114;-56
2020/12/15 09:31:18;;;;;;;26.70;15.13;;;;;;;2.58;77.89;100542.18;1690712;83;21168;-57
2020/12/15 09:33:47;;;;;;;29.98;15.30;;;;;;;2.58;77.54;100537.02;1746368;82;21111;-56
2020/12/15 09:36:15;;;;;;;27.05;15.20;;;;;;;2.52;77.48;100539.95;1753977;81;21563;-56
2020/12/15 09:38:46;;;;;;;33.35;18.48;;;;;;;2.55;77.47;100546.70;1755064;81;21618;-55
2020/12/15 09:41:14;;;;;;;39.27;24.05;;;;;;;2.59;77.45;100548.17;1719855;83;21284;-57
2020/12/15 09:43:43;;;;;;;32.15;19.50;;;;;;;2.64;77.37;100550.04;1768515;80;21179;-56
2020/12/15 09:46:11;;;;;;;30.40;17.50;;;;;;;2.71;77.16;100546.19;1726891;82;21159;-55
2020/12/15 09:48:41;;;;;;;33.67;17.73;;;;;;;2.73;76.91;100544.80;1731666;82;21653;-55
2020/12/15 09:51:12;;;;;;;27.60;14.28;;;;;;;2.63;76.73;100549.21;1747001;82;21622;-56
2020/12/15 09:53:41;;;;;;;27.32;15.05;;;;;;;2.61;76.89;100548.48;1752870;82;21630;-56
2020/12/15 09:56:17;;;;;;;26.57;14.68;;;;;;;2.57;76.84;100548.72;1726061;80;21636;-54
2020/12/15 09:58:47;;;;;;;30.52;16.37;;;;;;;2.59;76.99;100550.29;1725214;82;21295;-57
2020/12/15 10:01:17;;;;;;;28.55;15.45;;;;;;;2.64;76.99;100556.03;1737465;82;21503;-54
2020/12/15 10:03:46;;;;;;;33.18;17.15;;;;;;;2.71;76.79;100562.97;1743242;80;21866;-57
2020/12/15 10:06:15;;;;;;;36.28;20.80;;;;;;;2.73;76.77;100563.70;1745814;80;21190;-57
2020/12/15 10:08:45;;;;;;;30.08;16.70;;;;;;;2.70;76.77;100563.89;1745529;80;21284;-56
2020/12/15 10:11:15;;;;;;;31.73;19.48;;;;;;;2.72;76.68;100565.08;1741122;82;21195;-55
2020/12/15 10:13:44;;;;;;;27.22;15.65;;;;;;;2.73;76.44;100557.25;1745310;82;21629;-54
2020/12/15 10:16:15;;;;;;;37.28;18.77;;;;;;;2.62;76.26;100555.75;1737390;82;21163;-56
2020/12/15 10:18:46;;;;;;;25.50;13.70;;;;;;;2.57;76.39;100560.34;1765982;80;21562;-56
2020/12/15 10:21:18;;;;;;;27.98;16.05;;;;;;;2.55;76.47;100550.57;1790180;80;22084;-56
2020/12/15 10:23:49;;;;;;;31.68;17.40;;;;;;;2.51;76.50;100560.22;1790138;80;21174;-55
2020/12/15 10:26:21;;;;;;;32.30;18.27;;;;;;;2.56;76.80;100569.00;1771864;80;21578;-54
2020/12/15 10:28:50;;;;;;;36.30;18.87;;;;;;;2.53;76.61;100568.69;1747597;80;21741;-56
2020/12/15 10:31:18;;;;;;;43.45;24.50;;;;;;;2.43;76.72;100570.96;1758536;80;21194;-56
2020/12/15 10:33:47;;;;;;;45.33;25.27;;;;;;;2.48;76.98;100571.98;1723974;80;21162;-56
2020/12/15 10:36:17;;;;;;;42.67;22.98;;;;;;;2.57;76.85;100568.08;1743245;80;21150;-56
2020/12/15 10:38:46;;;;;;;39.85;21.80;;;;;;;2.56;76.66;100567.70;1745844;80;21616;-55
2020/12/15 10:41:15;;;;;;;33.25;17.52;;;;;;;2.52;76.87;100567.49;1745452;80;21170;-57
2020/12/15 10:43:50;;;;;;;41.73;20.75;;;;;;;2.55;77.05;100572.03;1739793;80;21668;-58
2020/12/15 10:46:27;;;;;;;44.15;22.58;;;;;;;2.61;76.88;100561.38;1724956;82;21998;-57
2020/12/15 10:48:58;;;;;;;41.37;22.70;;;;;;;2.73;76.86;100562.41;1752221;82;21316;-58
2020/12/15 10:51:31;;;;;;;36.60;21.27;;;;;;;2.88;76.78;100557.69;1715708;81;21170;-57
2020/12/15 10:54:06;;;;;;;36.73;20.08;;;;;;;2.91;76.22;100556.66;1739834;80;21179;-54
2020/12/15 10:56:35;;;;;;;49.30;26.35;;;;;;;2.80;76.21;100562.46;1747249;80;21631;-55
2020/12/15 10:59:04;;;;;;;42.85;22.30;;;;;;;2.78;76.30;100561.70;1746649;82;21116;-56
2020/12/15 11:01:32;;;;;;;42.65;24.27;;;;;;;2.78;76.21;100561.70;1742422;81;21540;-58
2020/12/15 11:04:01;;;;;;;44.58;22.62;;;;;;;2.76;76.22;100561.42;1663734;85;21223;-56
2020/12/15 11:06:35;;;;;;;60.83;27.58;;;;;;;2.70;76.43;100570.34;1740429;80;21749;-55
2020/12/15 11:09:01;;;;;;;42.70;21.73;;;;;;;2.69;76.52;100569.51;1733556;80;21179;-54
2020/12/15 11:11:33;;;;;;;45.28;23.92;;;;;;;2.70;76.67;100569.88;1731364;80;21159;-57
2020/12/15 11:14:03;;;;;;;51.30;28.67;;;;;;;2.65;76.58;100562.84;1734142;80;21611;-56
2020/12/15 11:16:35;;;;;;;58.35;30.00;;;;;;;2.65;76.58;100562.84;1746111;82;21663;-56
2020/12/15 11:19:07;;;;;;;41.68;21.85;;;;;;;2.67;76.83;100562.75;1756330;80;21103;-58
2020/12/15 11:21:36;;;;;;;33.00;18.65;;;;;;;2.73;76.66;100564.98;1750731;80;21135;-56
2020/12/15 11:24:05;;;;;;;29.07;17.25;;;;;;;2.73;76.50;100561.12;1746987;82;21163;-55
2020/12/15 11:26:34;;;;;;;29.23;16.20;;;;;;;2.69;76.54;100557.06;1747531;82;21159;-56
2020/12/15 11:29:03;;;;;;;30.10;16.40;;;;;;;2.70;76.57;100567.76;1746363;80;21183;-56
2020/12/15 11:31:32;;;;;;;30.37;17.32;;;;;;;2.70;76.47;100571.16;1744659;80;21597;-58
2020/12/15 11:34:02;;;;;;;35.10;18.00;;;;;;;2.66;76.42;100572.25;1743619;81;21582;-56
2020/12/15 11:36:31;;;;;;;33.25;16.37;;;;;;;2.62;76.44;100572.06;1743341;82;21308;-59
2020/12/15 11:39:00;;;;;;;33.85;19.12;;;;;;;2.58;76.60;100569.73;1744108;80;21162;-57
2020/12/15 11:41:29;;;;;;;35.98;19.75;;;;;;;2.54;76.76;100565.65;1743747;82;21644;-57
2020/12/15 11:44:00;;;;;;;45.58;25.65;;;;;;;2.54;76.88;100567.77;1742810;80;21197;-58
2020/12/15 11:46:30;;;;;;;44.75;23.70;;;;;;;2.51;76.96;100573.11;1741507;81;21544;-57
2020/12/15 11:49:05;;;;;;;47.05;22.87;;;;;;;2.48;77.01;100581.47;1730637;83;22178;-57
2020/12/15 11:51:36;;;;;;;40.12;19.95;;;;;;;2.45;77.21;100586.34;1715840;82;21639;-58
2020/12/15 11:54:05;;;;;;;47.38;22.85;;;;;;;2.47;77.24;100593.53;1731461;82;21610;-57
2020/12/15 11:56:34;;;;;;;43.02;22.00;;;;;;;2.40;77.42;100592.20;1739920;80;21195;-59
2020/12/15 11:59:03;;;;;;;49.65;25.10;;;;;;;2.38;77.68;100595.34;1743323;82;21166;-56
2020/12/15 12:01:33;;;;;;;35.50;17.98;;;;;;;2.39;77.78;100590.09;1718758;82;21617;-60
2020/12/15 12:04:04;;;;;;;63.10;32.42;;;;;;;2.48;77.62;100597.77;1744007;81;21653;-57
2020/12/15 12:06:33;;;;;;;61.13;33.10;;;;;;;2.45;77.48;100597.95;1744214;82;21602;-57
2020/12/15 12:09:03;;;;;;;73.37;36.63;;;;;;;2.39;77.60;100604.27;1789557;80;21642;-56
2020/12/15 12:11:31;;;;;;;53.50;27.82;;;;;;;2.37;77.74;100603.54;1792725;80;21336;-57
2020/12/15 12:14:00;;;;;;;65.92;31.42;;;;;;;2.36;77.71;100605.75;1792421;80;21186;-56
2020/12/15 12:16:29;;;;;;;64.97;31.50;;;;;;;2.37;77.72;100598.84;1790679;80;21649;-57
2020/12/15 12:18:59;;;;;;;48.98;23.90;;;;;;;2.31;77.79;100612.89;1744984;81;21704;-61
2020/12/15 12:21:27;;;;;;;56.63;25.82;;;;;;;2.32;77.96;100625.33;1724902;83;21189;-58
2020/12/15 12:23:56;;;;;;;51.20;25.00;;;;;;;2.31;77.97;100627.54;1712250;83;21657;-59
2020/12/15 12:26:24;;;;;;;42.08;21.45;;;;;;;2.29;78.02;100625.02;1677698;85;21241;-56
2020/12/15 12:28:56;;;;;;;57.53;23.70;;;;;;;2.29;78.04;100634.05;1665727;83;21691;-55
2020/12/15 12:31:23;;;;;;;58.45;26.10;;;;;;;2.24;78.14;100636.52;1713995;82;21815;-58
2020/12/15 12:33:52;;;;;;;36.33;18.95;;;;;;;2.21;78.43;100641.36;1727837;82;21170;-59
2020/12/15 12:36:21;;;;;;;31.95;17.73;;;;;;;2.25;78.70;100637.72;1737661;82;21645;-57
2020/12/15 12:38:50;;;;;;;32.35;18.17;;;;;;;2.36;78.62;100635.41;1725933;82;21166;-59
2020/12/15 12:41:20;;;;;;;33.75;17.70;;;;;;;2.38;78.45;100643.05;1703356;83;21232;-57
2020/12/15 12:43:49;;;;;;;46.85;23.65;;;;;;;2.30;78.65;100643.47;1738828;81;21634;-58
2020/12/15 12:46:18;;;;;;;63.42;28.00;;;;;;;2.30;78.74;100643.47;1740590;82;21174;-56
2020/12/15 12:48:47;;;;;;;56.42;27.45;;;;;;;2.20;78.82;100647.90;1733427;82;21223;-58
2020/12/15 12:51:18;;;;;;;44.25;23.85;;;;;;;2.11;79.27;100644.05;1723084;82;21190;-56
2020/12/15 12:53:49;;;;;;;35.38;20.92;;;;;;;2.11;79.54;100653.06;1727313;82;21549;-56
2020/12/15 12:56:17;;;;;;;39.67;21.23;;;;;;;2.13;79.73;100652.09;1740343;81;22399;-57
2020/12/15 12:58:46;;;;;;;46.42;23.83;;;;;;;2.17;79.62;100654.03;1727220;82;21158;-57
2020/12/15 13:01:22;;;;;;;45.80;27.52;;;;;;;2.15;79.63;100647.67;1727970;82;21655;-57
2020/12/15 13:03:51;;;;;;;60.52;33.08;;;;;;;2.15;79.35;100650.72;1694474;82;21172;-58
2020/12/15 13:06:20;;;;;;;58.23;30.23;;;;;;;2.18;79.78;100657.47;1734204;82;21701;-57
2020/12/15 13:08:49;;;;;;;51.25;27.40;;;;;;;2.26;79.94;100650.98;1749520;81;21194;-56
2020/12/15 13:11:19;;;;;;;48.87;24.63;;;;;;;2.33;79.76;100653.61;1738156;82;21225;-56
2020/12/15 13:13:48;;;;;;;53.85;27.93;;;;;;;2.32;79.63;100658.39;1726738;82;21606;-58
2020/12/15 13:16:16;;;;;;;47.03;22.58;;;;;;;2.31;79.46;100671.37;1731873;82;21637;-56
2020/12/15 13:18:45;;;;;;;48.90;23.80;;;;;;;2.31;79.46;100671.37;1738976;82;21162;-57
2020/12/15 13:21:15;;;;;;;48.30;23.70;;;;;;;2.27;79.60;100662.12;1720531;81;21598;-59
2020/12/15 13:23:45;;;;;;;49.20;25.80;;;;;;;2.30;79.69;100674.84;1723274;82;21174;-56
2020/12/15 13:26:15;;;;;;;64.80;29.15;;;;;;;2.38;79.77;100671.42;1726184;82;21190;-58
2020/12/15 13:28:44;;;;;;;59.40;27.70;;;;;;;2.38;79.54;100676.12;1714372;82;21791;-57
2020/12/15 13:31:12;;;;;;;51.53;26.25;;;;;;;2.38;79.50;100677.41;1719665;81;21206;-59
2020/12/15 13:33:41;;;;;;;60.28;27.42;;;;;;;2.41;79.49;100677.23;1757598;81;22269;-58
2020/12/15 13:36:10;;;;;;;49.67;24.55;;;;;;;2.45;79.43;100677.91;1753578;81;21131;-57
2020/12/15 13:41:19;;;;;;;49.55;24.25;;;;;;;2.43;79.32;100683.16;1813547;77;22225;-57
2020/12/15 13:43:48;;;;;;;48.28;22.67;;;;;;;2.34;79.26;100685.39;1782593;78;21755;-57
2020/12/15 13:46:17;;;;;;;43.25;23.65;;;;;;;2.25;79.60;100683.30;1761213;81;21198;-55
2020/12/15 13:48:46;;;;;;;45.17;26.20;;;;;;;2.21;79.59;100685.20;1764607;81;21229;-58
2020/12/15 13:51:14;;;;;;;52.30;28.38;;;;;;;2.20;79.75;100687.86;1725773;81;21592;-59
2020/12/15 13:53:43;;;;;;;52.25;29.15;;;;;;;2.18;79.79;100687.13;1717034;82;21606;-57
2020/12/15 13:56:12;;;;;;;46.80;25.80;;;;;;;2.18;79.85;100676.81;1733296;81;21171;-56
2020/12/15 13:58:40;;;;;;;47.58;26.80;;;;;;;2.16;79.83;100682.02;1728172;83;21546;-59
2020/12/15 14:01:09;;;;;;;46.77;26.95;;;;;;;2.11;79.88;100681.42;1740970;82;21571;-58
2020/12/15 14:03:38;;;;;;;42.08;23.90;;;;;;;2.15;80.18;100688.09;1715130;83;21749;-55
2020/12/15 14:06:06;;;;;;;40.03;24.05;;;;;;;2.26;80.14;100681.92;1710043;82;21773;-57
2020/12/15 14:08:37;;;;;;;44.25;24.12;;;;;;;2.31;79.84;100679.12;1732058;81;21148;-57
2020/12/15 14:11:07;;;;;;;56.40;30.68;;;;;;;2.33;79.70;100678.56;1717137;83;21637;-59
2020/12/15 14:13:35;;;;;;;52.05;30.27;;;;;;;2.36;79.65;100676.67;1713773;84;21659;-57
2020/12/15 14:16:05;;;;;;;60.05;36.00;;;;;;;2.42;79.61;100681.50;1712391;81;21605;-58
2020/12/15 14:18:37;;;;;;;52.67;32.30;;;;;;;2.49;79.56;100682.47;1759934;81;21505;-56
2020/12/15 14:21:05;;;;;;;55.20;31.80;;;;;;;2.55;79.25;100682.97;1754720;81;21187;-57
2020/12/15 14:23:34;;;;;;;49.60;27.27;;;;;;;2.58;79.15;100682.79;1734885;82;21689;-55
2020/12/15 14:26:05;;;;;;;39.60;23.02;;;;;;;2.65;78.97;100681.53;1725795;83;21348;-57
2020/12/15 14:28:33;;;;;;;52.88;27.20;;;;;;;2.72;78.78;100682.03;1725497;83;21174;-57
2020/12/15 14:31:02;;;;;;;53.15;26.50;;;;;;;2.73;78.48;100683.69;1727690;82;21677;-59
2020/12/15 14:33:31;;;;;;;50.95;28.23;;;;;;;2.69;78.47;100684.34;1736148;82;21163;-56
2020/12/15 14:36:00;;;;;;;57.62;31.27;;;;;;;2.71;78.37;100693.27;1746063;82;22246;-57
2020/12/15 14:38:29;;;;;;;44.88;27.40;;;;;;;2.59;78.20;100690.06;1742573;82;21317;-60
2020/12/15 14:40:57;;;;;;;50.12;27.73;;;;;;;2.53;78.48;100694.27;1711301;81;22260;-56
2020/12/15 14:43:28;;;;;;;36.75;23.22;;;;;;;2.51;78.61;100693.52;1723760;83;21658;-56
2020/12/15 14:45:56;;;;;;;38.80;21.42;;;;;;;2.54;78.69;100694.17;1730157;82;21611;-55
2020/12/15 14:48:25;;;;;;;44.50;25.32;;;;;;;2.55;78.54;100692.45;1711970;83;21587;-55
2020/12/15 14:50:54;;;;;;;50.35;27.15;;;;;;;2.55;78.54;100692.45;1730127;82;21595;-56
